Fairbanks, AK (99710)

3:19 AM AKST on February 27, 2015 (GMT -0900)
APRSWXNET North Bias Drive AK US | Change Station
CLOSE
Current Station
Personal Weather Station
Location: Fairbanks, AK
Elevation: 679 ft
Nearby Weather Stations

Elev 679 ft 64.88 °N, 147.60 °W | Updated 51 minutes ago

Mostly Cloudy
Mostly Cloudy
16 °F
Feels Like 16 °F
N
0
Wind Variable Wind from South
Gusts 0.0 mph

Today
High -- | Low -- °F
--% Chance of Precip.
Yesterday
High -- | Low -- °F
Precip. -- in
8:07 AM 6:01 PM
Waxing Gibbous, 68% visible
Pressure 30.54 in
Visibility 10.0 miles
Clouds Scattered Clouds 5000 ft
Mostly Cloudy 7500 ft
Mostly Cloudy 15000 ft
Windchill 16 °F
Dew Point 13 °F
Humidity 87%
Rainfall 0.00 in
Snow Depth Not available.
UV 0 out of 12
Pollen Not available.
Air Quality Not available.
Flu Activity Not available.
METAR PAFA 271053Z 00000KT 10SM SCT050 BKN075 BKN150 M11/M13 A3050 RMK AO2 SLP342 T11061133

More Conditions Fewer Conditions

Pressure 30.54 in
Visibility 10.0 miles
Clouds Scattered Clouds 5000 ft
Mostly Cloudy 7500 ft
Mostly Cloudy 15000 ft
Windchill 16 °F
Dew Point 13 °F
Humidity 87%
Rainfall 0.00 in
Snow Depth Not available.
UV 0 out of 12
Pollen Not available.
Air Quality Not available.
Flu Activity Not available.
METAR PAFA 271053Z 00000KT 10SM SCT050 BKN075 BKN150 M11/M13 A3050 RMK AO2 SLP342 T11061133

More Conditions Fewer Conditions

10-Day Weather Forecast

Almanac

Astronomy

Feb. 27, 2015 Rise Set
Actual Time
Civil Twilight
Nautical Twilight
Astronomical Twilight
Moon
Length of Visible Light
Length of Day
Tomorrow will be .
, % of the Moon is Illuminated

Today's Extremes

State Highs State Lows

Community

WunderPhotos

Upload Photos

1,800,663 photos uploaded!

WunderBlogs® & News

Nearby

Air Quality

  Air Quality AQ Index Pollutant
Not available.

Snow Depth

Station Depth Elevation

Earthquake Activity

City Distance Mag. Time & Date
Minimum magnitude displayed is 2.5.

Coastal Water Temperatures

Place Temperature

Nearby Weather Stations